Kingsgate, Washington
Current Conditions -  °F | °C
As of 11:53 AM on Saturday 25 Oct 2014 (Local Time) from KBFI Reporting Station
Light Rain Light Rain  
Wind Chill: 58°   Ceiling: 8000
Heat Index: 58°   Visibility: 10mi
Dew Point: 51°   Wind: 5mph
Humidity: 78%   Direction: NA
Pressure: 29.4"   Gusts: NA
Location:  47.7179°N, 122.204°W
Report Text: KBFI 251853Z VRB04KT 10SM -RA FEW060 BKN080 OVC100 14/11 A2940 RMK AO2 RAB40 SLP956 P0001 T01440106
Loading
Personal Weather Stations






























Interactive Weather Map New forecast layout! Learn more

10-Day Weather Forecast

Advertisements
Track Severe Weather on mobile